createdAt,value
2023-05-23T00:09:15.626Z,100871.00
2023-05-23T00:19:19.915Z,100882.25
2023-05-23T00:29:23.025Z,100884.66
2023-05-23T00:39:28.200Z,100884.13
2023-05-23T00:49:32.131Z,100887.63
2023-05-23T00:59:37.696Z,100880.53
2023-05-23T01:09:40.899Z,100882.91
2023-05-23T01:20:01.302Z,100883.69
2023-05-23T01:30:09.699Z,100883.19
2023-05-23T01:40:13.156Z,100887.47
2023-05-23T01:50:19.049Z,100880.94
2023-05-23T02:00:22.295Z,100888.03
2023-05-23T02:10:26.955Z,100894.75
2023-05-23T02:20:29.936Z,100905.06
2023-05-23T02:30:34.456Z,100919.81
2023-05-23T02:40:37.578Z,100938.91
2023-05-23T02:50:41.954Z,100946.16
2023-05-23T03:00:45.232Z,100950.81
2023-05-23T03:10:50.027Z,100946.34
2023-05-23T03:20:53.733Z,100956.63
2023-05-23T03:31:01.031Z,100960.50
2023-05-23T03:41:04.467Z,100954.03
2023-05-23T03:51:09.991Z,100965.72
2023-05-23T04:01:13.816Z,100972.16
2023-05-23T04:11:18.709Z,100991.16
2023-05-23T04:21:21.862Z,100985.44
2023-05-23T04:31:38.229Z,100992.00
2023-05-23T04:41:41.220Z,100992.81
2023-05-23T04:52:20.840Z,100991.94
2023-05-23T05:02:23.857Z,100992.56
2023-05-23T05:12:28.343Z,101000.66
2023-05-23T05:22:31.553Z,100999.91
2023-05-23T05:32:36.506Z,101012.59
2023-05-23T05:42:39.963Z,101023.13
2023-05-23T05:52:44.449Z,101026.84
2023-05-23T06:02:48.657Z,101031.16
2023-05-23T06:13:00.353Z,101042.25
2023-05-23T06:23:05.655Z,101047.28
2023-05-23T06:33:10.320Z,101046.94
2023-05-23T06:43:13.322Z,101052.75
2023-05-23T06:53:29.641Z,101063.91
2023-05-23T07:03:33.629Z,101070.69
2023-05-23T07:13:42.680Z,101073.91
2023-05-23T07:23:51.750Z,101076.09
2023-05-23T07:33:57.494Z,101075.88
2023-05-23T07:44:09.971Z,101076.78
2023-05-23T07:54:16.519Z,101091.94
2023-05-23T08:04:20.963Z,101098.16
2023-05-23T08:14:42.223Z,101111.84
2023-05-23T08:24:57.828Z,101122.19
2023-05-23T08:35:04.946Z,101115.81
2023-05-23T08:45:10.806Z,101129.81
2023-05-23T08:55:16.410Z,101137.88
2023-05-23T09:05:20.305Z,101147.91
2023-05-23T09:15:27.463Z,101156.00
2023-05-23T09:25:31.268Z,101164.97
2023-05-23T09:35:35.987Z,101173.38
2023-05-23T09:45:39.611Z,101168.75
2023-05-23T09:55:44.076Z,101177.31
2023-05-23T10:05:48.748Z,101192.28
2023-05-23T10:15:59.678Z,101205.78
2023-05-23T10:26:06.199Z,101209.28
2023-05-23T10:36:16.372Z,101214.66
2023-05-23T10:46:22.098Z,101217.94
2023-05-23T10:56:26.734Z,101223.72
2023-05-23T11:06:32.894Z,101224.38
2023-05-23T11:16:43.838Z,101225.19
2023-05-23T11:26:54.650Z,101231.63
2023-05-23T11:37:01.051Z,101229.06
2023-05-23T11:47:06.368Z,101243.94
2023-05-23T11:57:11.270Z,101247.09
2023-05-23T12:07:14.275Z,101268.88
2023-05-23T12:17:18.886Z,101268.03
2023-05-23T12:27:28.627Z,101283.47
2023-05-23T12:37:32.964Z,101270.00
2023-05-23T12:47:36.081Z,101273.69
2023-05-23T12:57:40.452Z,101280.78
2023-05-23T13:07:44.599Z,101276.84
2023-05-23T13:17:50.384Z,101272.25
2023-05-23T13:27:54.087Z,101277.03
2023-05-23T13:37:58.499Z,101282.66
2023-05-23T13:48:02.031Z,101287.47
2023-05-23T13:58:06.309Z,101294.31
2023-05-23T14:08:09.298Z,101275.22
2023-05-23T14:18:13.846Z,101279.03
2023-05-23T14:28:44.654Z,101275.34
2023-05-23T14:38:51.181Z,101274.75
2023-05-23T14:48:54.088Z,101261.34
2023-05-23T14:58:58.663Z,101264.50
2023-05-23T15:09:01.879Z,101238.97
2023-05-23T15:19:06.748Z,101248.78
2023-05-23T15:29:09.909Z,101247.00
2023-05-23T15:39:16.377Z,101249.00
2023-05-23T15:49:26.462Z,101240.63
2023-05-23T15:59:31.907Z,101239.66
2023-05-23T16:09:34.989Z,101241.47
2023-05-23T16:19:39.328Z,101245.81
2023-05-23T16:29:42.538Z,101247.34
2023-05-23T16:39:46.968Z,101246.47
2023-05-23T16:49:50.290Z,101240.88
2023-05-23T16:59:54.936Z,101237.44
2023-05-23T17:09:58.009Z,101228.25
2023-05-23T17:20:02.330Z,101236.84
2023-05-23T17:30:06.171Z,101239.31
2023-05-23T17:40:11.927Z,101240.31
2023-05-23T17:50:14.966Z,101244.84
2023-05-23T18:00:21.363Z,101254.91
2023-05-23T18:10:24.722Z,101255.66
2023-05-23T18:20:29.077Z,101272.00
2023-05-23T18:30:32.121Z,101278.97
2023-05-23T18:40:36.414Z,101295.50
2023-05-23T18:50:39.842Z,101295.94
2023-05-23T19:00:45.439Z,101303.56
2023-05-23T19:10:48.600Z,101302.44
2023-05-23T19:20:53.280Z,101324.41
2023-05-23T19:30:56.382Z,101335.25
2023-05-23T19:41:00.642Z,101346.75
2023-05-23T19:51:03.678Z,101350.66
2023-05-23T20:01:08.045Z,101355.59
2023-05-23T20:11:12.519Z,101377.75
2023-05-23T20:21:16.726Z,101383.31
2023-05-23T20:31:20.008Z,101397.22
2023-05-23T20:41:24.686Z,101403.16
2023-05-23T20:51:27.744Z,101418.69
2023-05-23T21:01:33.061Z,101426.00
2023-05-23T21:11:36.211Z,101430.41
2023-05-23T21:21:40.678Z,101442.66
2023-05-23T21:31:43.776Z,101440.38
2023-05-23T21:41:48.328Z,101438.84
2023-05-23T21:51:51.473Z,101440.97
2023-05-23T22:01:55.788Z,101450.97
2023-05-23T22:11:58.932Z,101453.06
2023-05-23T22:22:03.546Z,101454.09
2023-05-23T22:32:06.899Z,101456.75
2023-05-23T22:42:11.280Z,101453.19
2023-05-23T22:52:15.046Z,101454.06
2023-05-23T23:02:19.463Z,101446.75
2023-05-23T23:12:22.520Z,101450.50
2023-05-23T23:22:26.984Z,101440.25
2023-05-23T23:32:30.879Z,101445.66
2023-05-23T23:42:36.058Z,101449.22
2023-05-23T23:52:39.070Z,101461.28
